Time;durP1;ratioP1;P1;durP2;ratioP2;P2;SDS_P1;SDS_P2;PMS_P1;PMS_P2;Temp;Humidity;BMP_temperature;BMP_pressure;BME280_temperature;BME280_humidity;BME280_pressure;Samples;Min_cycle;Max_cycle;Signal;HPM_P1;HPM_P2
2021/12/31 00:00:13;;;;;;;2.20;0.98;;;24.20;51.00;;;;;;5076600;28;20297;-55
2021/12/31 00:02:44;;;;;;;2.72;1.00;;;24.20;51.00;;;;;;5070874;28;20238;-54
2021/12/31 00:05:15;;;;;;;2.47;1.02;;;24.20;50.90;;;;;;5071285;28;20726;-40
2021/12/31 00:07:45;;;;;;;2.13;0.95;;;24.20;50.90;;;;;;5071130;28;20309;-51
2021/12/31 00:10:18;;;;;;;3.53;1.10;;;24.30;51.00;;;;;;5071462;28;20211;-50
2021/12/31 00:12:49;;;;;;;2.65;1.08;;;24.30;51.00;;;;;;5071900;28;20193;-53
2021/12/31 00:15:19;;;;;;;3.13;0.90;;;24.30;51.00;;;;;;5072980;28;20285;-52
2021/12/31 00:17:50;;;;;;;2.10;0.90;;;24.30;51.00;;;;;;5089077;28;20228;-47
2021/12/31 00:20:24;;;;;;;2.60;0.90;;;24.30;51.00;;;;;;5088421;28;20293;-51
2021/12/31 00:23:08;;;;;;;3.17;1.25;;;24.30;51.00;;;;;;5084652;28;20278;-46
2021/12/31 00:25:42;;;;;;;2.30;0.93;;;24.30;50.90;;;;;;5071877;28;20201;-55
2021/12/31 00:28:14;;;;;;;2.13;0.90;;;24.30;50.90;;;;;;5071301;28;20222;-56
2021/12/31 00:30:45;;;;;;;2.03;0.88;;;24.40;51.00;;;;;;5078302;28;20222;-50
2021/12/31 00:33:15;;;;;;;2.50;0.90;;;24.40;51.00;;;;;;5079114;28;20206;-54
2021/12/31 00:35:46;;;;;;;1.88;0.77;;;24.40;50.90;;;;;;5071698;28;20238;-47
2021/12/31 00:38:17;;;;;;;2.28;0.98;;;24.40;50.90;;;;;;5070867;28;20238;-56
2021/12/31 00:40:49;;;;;;;2.60;1.08;;;24.40;50.90;;;;;;5075186;28;20745;-41
2021/12/31 00:43:19;;;;;;;2.70;0.80;;;24.40;51.10;;;;;;5071474;28;20289;-46
2021/12/31 00:45:50;;;;;;;3.17;1.10;;;24.50;50.90;;;;;;5072539;28;20281;-56
2021/12/31 00:48:20;;;;;;;2.25;0.90;;;24.50;50.90;;;;;;5070771;28;20312;-52
2021/12/31 00:50:51;;;;;;;2.63;0.75;;;24.50;50.80;;;;;;5071002;28;20222;-52
2021/12/31 00:53:21;;;;;;;1.73;0.90;;;24.50;50.80;;;;;;5070993;28;20286;-52
2021/12/31 00:55:53;;;;;;;2.95;0.90;;;24.50;51.50;;;;;;5071007;28;20689;-44
2021/12/31 00:58:24;;;;;;;1.73;1.00;;;24.60;50.90;;;;;;5071123;28;20659;-50
2021/12/31 01:00:54;;;;;;;1.27;0.70;;;24.60;51.00;;;;;;5078844;28;20242;-52
2021/12/31 01:03:25;;;;;;;2.38;0.88;;;24.60;51.00;;;;;;5072382;28;20234;-51
2021/12/31 01:05:55;;;;;;;2.28;0.70;;;24.60;51.00;;;;;;5071298;28;20232;-55
2021/12/31 01:08:26;;;;;;;1.33;0.80;;;24.60;50.90;;;;;;5086494;28;20309;-50
2021/12/31 01:10:58;;;;;;;0.80;0.80;;;24.70;51.00;;;;;;5070812;28;20301;-46
2021/12/31 01:13:34;;;;;;;2.47;1.02;;;24.70;50.90;;;;;;5070929;28;20614;-56
2021/12/31 01:16:05;;;;;;;2.08;1.00;;;24.70;50.90;;;;;;5085720;28;20669;-51
2021/12/31 01:21:20;;;;;;;3.03;1.23;;;24.70;50.90;;;;;;5055632;28;20218;-44
2021/12/31 01:23:51;;;;;;;3.60;0.80;;;24.80;50.90;;;;;;5074626;28;20194;-44
2021/12/31 01:26:23;;;;;;;2.55;1.00;;;24.80;50.90;;;;;;5074429;28;20290;-50
2021/12/31 01:28:53;;;;;;;2.90;1.02;;;24.80;50.80;;;;;;5074421;28;20301;-40
2021/12/31 01:31:24;;;;;;;1.48;0.82;;;24.80;50.70;;;;;;5075903;28;20241;-51
2021/12/31 01:33:54;;;;;;;1.75;0.90;;;24.90;50.80;;;;;;5074901;28;20290;-46
2021/12/31 01:36:25;;;;;;;1.83;0.80;;;24.90;50.80;;;;;;5076353;28;20202;-46
2021/12/31 01:38:56;;;;;;;3.08;0.93;;;24.90;50.70;;;;;;5074573;28;20234;-50
2021/12/31 01:41:28;;;;;;;2.20;1.00;;;24.90;50.80;;;;;;5077398;28;20293;-51
2021/12/31 01:44:05;;;;;;;1.42;0.80;;;24.90;50.70;;;;;;5091218;28;20291;-55
2021/12/31 01:46:39;;;;;;;4.22;1.17;;;25.00;50.80;;;;;;5091603;28;20232;-51
2021/12/31 01:49:19;;;;;;;2.08;1.00;;;25.00;50.80;;;;;;5078693;28;20231;-47
2021/12/31 01:51:49;;;;;;;2.58;1.00;;;25.00;50.90;;;;;;5073788;28;20234;-48
2021/12/31 01:54:20;;;;;;;1.75;0.90;;;25.00;50.80;;;;;;5074134;28;20225;-49
2021/12/31 01:56:52;;;;;;;2.60;1.33;;;25.10;50.90;;;;;;5075044;28;20213;-52
2021/12/31 01:59:23;;;;;;;1.90;0.90;;;25.10;50.90;;;;;;5082044;28;20264;-55
2021/12/31 02:01:54;;;;;;;1.48;0.88;;;25.10;50.90;;;;;;5087238;28;20281;-46
2021/12/31 02:04:24;;;;;;;3.60;1.00;;;25.10;50.90;;;;;;5088169;28;20308;-41
2021/12/31 02:06:55;;;;;;;1.88;1.00;;;25.20;50.80;;;;;;5073765;28;20747;-56
2021/12/31 02:09:25;;;;;;;1.70;0.82;;;25.10;50.80;;;;;;5072026;28;20301;-47
2021/12/31 02:11:59;;;;;;;1.48;0.90;;;25.20;50.70;;;;;;5076971;28;20213;-47
2021/12/31 02:14:30;;;;;;;1.98;1.00;;;25.20;50.70;;;;;;5071913;28;20278;-55
2021/12/31 02:17:00;;;;;;;1.48;1.00;;;25.30;50.70;;;;;;5073433;28;20645;-56
2021/12/31 02:19:31;;;;;;;1.60;0.90;;;25.30;50.70;;;;;;5072755;28;20258;-50
2021/12/31 02:22:03;;;;;;;2.30;0.95;;;25.30;50.60;;;;;;5072052;28;20230;-56
2021/12/31 02:24:35;;;;;;;2.38;0.90;;;25.30;50.50;;;;;;5073240;28;20205;-49
2021/12/31 02:27:06;;;;;;;1.70;0.90;;;25.30;50.50;;;;;;5072813;28;20244;-52
2021/12/31 02:29:38;;;;;;;2.95;1.15;;;25.40;50.50;;;;;;5073251;28;20856;-54
2021/12/31 02:32:09;;;;;;;2.70;0.88;;;25.40;50.50;;;;;;5074276;28;20281;-56
2021/12/31 02:34:39;;;;;;;2.63;1.00;;;25.40;50.60;;;;;;5071911;28;20627;-48
2021/12/31 02:37:12;;;;;;;2.85;1.20;;;25.50;50.70;;;;;;5074614;28;20198;-57
2021/12/31 02:39:43;;;;;;;1.13;0.80;;;25.50;50.70;;;;;;5085065;28;20218;-56
2021/12/31 02:42:14;;;;;;;1.15;0.90;;;25.50;50.60;;;;;;5073081;28;20190;-54
2021/12/31 02:44:44;;;;;;;1.55;0.85;;;25.60;50.60;;;;;;5071554;28;20281;-46
2021/12/31 02:47:15;;;;;;;2.15;1.10;;;25.60;50.60;;;;;;5083278;28;20234;-56
2021/12/31 02:49:47;;;;;;;1.48;0.90;;;25.60;50.60;;;;;;5070125;28;20689;-56
2021/12/31 02:52:20;;;;;;;2.33;0.98;;;25.60;50.60;;;;;;5078386;28;20287;-53
2021/12/31 02:54:51;;;;;;;1.17;0.80;;;25.70;50.60;;;;;;5071535;28;20322;-52
2021/12/31 02:57:22;;;;;;;3.05;1.25;;;25.80;50.60;;;;;;5072556;28;20293;-52
2021/12/31 02:59:53;;;;;;;2.58;1.08;;;25.80;50.70;;;;;;5071745;28;20711;-55
2021/12/31 03:02:25;;;;;;;2.45;1.00;;;25.80;50.70;;;;;;5086550;28;20281;-56
2021/12/31 03:04:56;;;;;;;2.58;1.10;;;25.80;50.60;;;;;;5073330;28;20207;-52
2021/12/31 03:07:29;;;;;;;3.22;1.20;;;25.90;50.70;;;;;;5071518;28;20222;-57
2021/12/31 03:10:01;;;;;;;1.88;0.98;;;25.90;50.60;;;;;;5086076;28;20305;-52
2021/12/31 03:12:31;;;;;;;2.10;1.10;;;25.90;50.50;;;;;;5072762;28;20924;-49
2021/12/31 03:15:03;;;;;;;2.25;1.10;;;25.90;50.40;;;;;;5072299;28;20318;-47
2021/12/31 03:17:35;;;;;;;2.20;1.05;;;26.00;50.40;;;;;;5083640;28;20225;-49
2021/12/31 03:20:11;;;;;;;2.08;0.80;;;26.00;50.50;;;;;;5072970;28;20274;-47
2021/12/31 03:22:44;;;;;;;1.40;0.90;;;26.10;50.40;;;;;;5072627;28;20206;-54
2021/12/31 03:25:15;;;;;;;3.08;1.00;;;26.10;50.40;;;;;;5072825;28;20230;-46
2021/12/31 03:27:45;;;;;;;1.83;1.00;;;26.10;50.50;;;;;;5073952;28;20290;-42
2021/12/31 03:30:17;;;;;;;2.22;0.90;;;26.20;50.50;;;;;;5085038;28;20305;-56
2021/12/31 03:32:48;;;;;;;2.35;0.90;;;26.20;50.50;;;;;;5079805;28;20278;-55
2021/12/31 03:35:18;;;;;;;1.83;0.80;;;26.20;50.40;;;;;;5072340;28;20264;-54
2021/12/31 03:37:51;;;;;;;2.08;0.90;;;26.30;50.50;;;;;;5081396;28;20230;-47
2021/12/31 03:40:21;;;;;;;2.28;1.10;;;26.30;50.40;;;;;;5079874;28;20313;-49
2021/12/31 03:42:52;;;;;;;1.80;0.80;;;26.30;50.30;;;;;;5072213;28;20206;-50
2021/12/31 03:45:23;;;;;;;2.42;1.10;;;26.40;50.30;;;;;;5071918;28;20198;-55
2021/12/31 03:47:53;;;;;;;1.95;0.90;;;26.40;50.20;;;;;;5075465;28;20195;-57
2021/12/31 03:50:24;;;;;;;1.63;0.95;;;26.40;50.20;;;;;;5071888;28;20702;-42
2021/12/31 03:52:56;;;;;;;1.55;0.90;;;26.40;50.10;;;;;;5071559;28;20234;-48
2021/12/31 03:55:27;;;;;;;2.33;1.10;;;26.50;50.10;;;;;;5081046;28;20256;-40
2021/12/31 03:57:57;;;;;;;2.60;0.90;;;26.50;50.00;;;;;;5076384;28;20245;-48
2021/12/31 04:00:29;;;;;;;2.05;1.13;;;26.60;50.00;;;;;;5071268;28;20301;-53
2021/12/31 04:02:59;;;;;;;1.60;0.90;;;26.50;49.90;;;;;;5070458;28;20199;-46
2021/12/31 04:05:30;;;;;;;2.42;1.00;;;26.60;49.90;;;;;;5074248;28;20226;-48
2021/12/31 04:08:02;;;;;;;1.55;0.95;;;26.60;49.80;;;;;;5084438;28;20284;-44
2021/12/31 04:10:32;;;;;;;1.20;0.70;;;26.70;49.80;;;;;;5072384;28;20309;-42
2021/12/31 04:13:03;;;;;;;2.75;1.13;;;26.70;49.80;;;;;;5071746;28;20234;-48
2021/12/31 04:15:33;;;;;;;2.42;1.13;;;26.70;49.70;;;;;;5071339;28;20298;-55
2021/12/31 04:18:04;;;;;;;3.58;1.40;;;26.70;49.70;;;;;;5085818;28;20237;-53
2021/12/31 04:20:37;;;;;;;2.42;1.00;;;26.70;49.70;;;;;;5071500;28;20268;-48
2021/12/31 04:23:14;;;;;;;2.60;1.10;;;26.70;49.70;;;;;;5071595;28;20646;-45
2021/12/31 04:25:45;;;;;;;2.72;1.20;;;26.80;49.70;;;;;;5071423;28;20285;-48
2021/12/31 04:28:16;;;;;;;1.60;1.02;;;26.80;49.60;;;;;;5073109;28;20318;-53
2021/12/31 04:30:46;;;;;;;2.55;1.15;;;26.80;49.60;;;;;;5071038;28;20240;-51
2021/12/31 04:33:17;;;;;;;2.05;1.10;;;26.80;49.50;;;;;;5082841;28;20289;-42
2021/12/31 04:35:47;;;;;;;1.98;1.00;;;26.80;49.50;;;;;;5088081;28;20286;-48
2021/12/31 04:38:20;;;;;;;3.15;0.93;;;26.90;49.50;;;;;;5084617;28;20210;-53
2021/12/31 04:40:50;;;;;;;1.73;0.90;;;26.90;49.50;;;;;;5071144;28;20301;-50
2021/12/31 04:43:21;;;;;;;1.60;0.73;;;26.90;49.40;;;;;;5071379;28;20290;-52
2021/12/31 04:45:51;;;;;;;2.35;1.05;;;26.90;49.40;;;;;;5071333;28;20195;-50
2021/12/31 04:48:21;;;;;;;1.63;0.95;;;26.90;49.40;;;;;;5078017;28;20234;-54
2021/12/31 04:50:52;;;;;;;2.30;1.00;;;26.90;49.40;;;;;;5073114;28;20222;-54
2021/12/31 04:53:25;;;;;;;1.10;0.80;;;26.90;49.40;;;;;;5081329;28;20381;-47
2021/12/31 04:55:55;;;;;;;1.98;0.90;;;26.90;49.40;;;;;;5083428;28;20685;-52
2021/12/31 04:58:25;;;;;;;2.72;1.05;;;26.90;49.40;;;;;;5082886;28;20271;-48
2021/12/31 05:00:56;;;;;;;2.30;0.90;;;26.90;49.40;;;;;;5074667;28;20266;-51
2021/12/31 05:03:26;;;;;;;3.22;1.27;;;26.90;49.40;;;;;;5077723;28;20706;-57
2021/12/31 05:05:57;;;;;;;2.30;1.10;;;26.90;50.00;;;;;;5084615;28;20689;-53
2021/12/31 05:08:29;;;;;;;1.10;0.90;;;26.90;49.30;;;;;;5080632;28;20642;-42
2021/12/31 05:11:00;;;;;;;1.73;0.90;;;26.90;49.40;;;;;;5075089;28;20744;-46
2021/12/31 05:13:30;;;;;;;2.50;0.98;;;26.90;49.40;;;;;;5074899;28;20205;-49
2021/12/31 05:16:03;;;;;;;1.40;0.82;;;26.90;49.30;;;;;;5074371;28;20286;-47
2021/12/31 05:18:33;;;;;;;1.88;0.98;;;26.90;49.30;;;;;;5070382;23;20312;-44
2021/12/31 05:21:04;;;;;;;2.58;1.10;;;26.90;49.30;;;;;;4973223;28;20305;-41
2021/12/31 05:23:36;;;;;;;1.27;0.93;;;27.00;49.40;;;;;;4971370;28;20835;-47
2021/12/31 05:26:07;;;;;;;1.55;0.90;;;27.00;49.40;;;;;;4971436;28;20312;-46
2021/12/31 05:28:37;;;;;;;1.40;0.93;;;27.00;49.40;;;;;;4970743;28;20297;-40
2021/12/31 05:31:08;;;;;;;1.55;0.80;;;27.00;49.40;;;;;;4971008;28;20289;-46
2021/12/31 05:33:39;;;;;;;1.42;0.80;;;27.00;49.40;;;;;;4985330;28;20347;-44
2021/12/31 05:36:09;;;;;;;1.35;0.80;;;27.00;49.40;;;;;;4971274;28;20293;-42
2021/12/31 05:38:42;;;;;;;1.50;0.90;;;27.00;49.30;;;;;;4954584;28;20757;-49
2021/12/31 05:41:13;;;;;;;1.50;1.00;;;27.00;49.30;;;;;;4972414;28;20289;-43
2021/12/31 05:43:43;;;;;;;1.15;0.88;;;27.00;49.30;;;;;;4971980;28;20195;-46
2021/12/31 05:46:13;;;;;;;1.80;0.88;;;27.00;49.30;;;;;;4970240;28;20203;-49
2021/12/31 05:48:44;;;;;;;1.67;0.80;;;27.00;49.30;;;;;;4980371;28;20229;-44
2021/12/31 05:51:14;;;;;;;1.77;0.82;;;27.00;49.30;;;;;;4968951;28;20252;-49
2021/12/31 05:53:47;;;;;;;2.17;1.15;;;27.00;49.30;;;;;;4971733;28;20285;-42
2021/12/31 05:56:18;;;;;;;1.20;0.82;;;27.00;49.30;;;;;;4970551;28;20289;-49
2021/12/31 05:58:48;;;;;;;1.70;0.88;;;27.00;49.40;;;;;;4970523;28;20202;-48
2021/12/31 06:01:18;;;;;;;1.20;0.75;;;27.00;49.40;;;;;;4970100;28;20293;-47
2021/12/31 06:03:49;;;;;;;1.55;0.80;;;27.00;49.40;;;;;;4976374;28;20537;-42
2021/12/31 06:06:19;;;;;;;1.67;0.90;;;27.00;49.40;;;;;;4970730;28;20252;-43
2021/12/31 06:08:52;;;;;;;1.17;0.70;;;27.00;49.40;;;;;;4970602;28;20673;-45
2021/12/31 06:11:23;;;;;;;1.83;0.90;;;27.00;49.30;;;;;;4970284;28;20274;-40
2021/12/31 06:14:00;;;;;;;1.95;0.85;;;27.00;49.40;;;;;;4970083;28;20281;-48
2021/12/31 06:16:33;;;;;;;1.40;0.90;;;27.00;49.40;;;;;;4970129;28;20202;-44
2021/12/31 06:19:06;;;;;;;1.85;0.95;;;27.00;49.40;;;;;;4973017;28;20308;-46
2021/12/31 06:21:37;;;;;;;1.33;0.90;;;27.00;49.40;;;;;;4970431;28;20294;-43
2021/12/31 06:24:11;;;;;;;1.15;0.70;;;27.00;49.30;;;;;;4970190;28;20325;-41
2021/12/31 06:26:41;;;;;;;2.35;1.00;;;27.00;49.30;;;;;;4970085;28;20206;-42
2021/12/31 06:29:11;;;;;;;1.08;0.80;;;27.00;49.30;;;;;;4970113;28;20658;-46
2021/12/31 06:31:42;;;;;;;1.20;0.88;;;27.00;49.30;;;;;;4970438;28;20761;-42
2021/12/31 06:34:12;;;;;;;1.23;0.80;;;27.00;49.30;;;;;;4970349;28;20742;-44
2021/12/31 06:36:43;;;;;;;1.95;1.02;;;27.00;49.30;;;;;;4972197;28;20285;-40
2021/12/31 06:39:15;;;;;;;1.20;0.65;;;27.00;49.30;;;;;;4970578;28;20254;-41
2021/12/31 06:41:45;;;;;;;2.03;0.93;;;27.00;49.30;;;;;;4969845;28;20774;-41
2021/12/31 06:44:16;;;;;;;1.27;0.82;;;27.00;50.00;;;;;;4969722;28;20297;-47
2021/12/31 06:46:46;;;;;;;1.02;0.80;;;27.00;49.70;;;;;;4953071;28;20273;-40
2021/12/31 06:49:17;;;;;;;1.00;0.88;;;27.00;49.50;;;;;;4983773;28;20297;-40
2021/12/31 06:51:47;;;;;;;1.52;0.90;;;27.00;49.50;;;;;;4971766;28;20283;-42
2021/12/31 06:54:19;;;;;;;1.00;0.77;;;27.00;49.50;;;;;;4970815;28;20290;-43
2021/12/31 06:56:50;;;;;;;2.70;1.10;;;27.00;49.50;;;;;;4969629;28;20294;-41
2021/12/31 06:59:20;;;;;;;1.58;1.00;;;27.00;49.50;;;;;;4969121;28;20305;-49
2021/12/31 07:01:51;;;;;;;0.95;0.70;;;27.00;49.50;;;;;;4969637;28;20229;-43
2021/12/31 07:04:23;;;;;;;1.90;1.20;;;27.00;49.50;;;;;;4979015;28;20289;-44
2021/12/31 07:06:53;;;;;;;1.55;1.00;;;27.00;49.50;;;;;;4969042;28;20281;-42
2021/12/31 07:09:25;;;;;;;1.80;1.10;;;27.00;49.50;;;;;;4969163;28;20253;-46
2021/12/31 07:11:56;;;;;;;1.27;0.80;;;27.00;49.40;;;;;;4969104;28;20359;-43
2021/12/31 07:14:26;;;;;;;1.38;0.75;;;27.00;49.30;;;;;;4969295;28;20289;-44
2021/12/31 07:16:57;;;;;;;1.08;0.70;;;27.00;49.30;;;;;;4969304;28;20285;-45
2021/12/31 07:19:27;;;;;;;1.25;0.70;;;27.00;49.40;;;;;;4976890;28;20265;-41
2021/12/31 07:21:58;;;;;;;1.63;0.80;;;27.00;49.30;;;;;;4969061;28;20883;-50
2021/12/31 07:24:30;;;;;;;1.50;0.70;;;27.00;49.30;;;;;;4969184;28;20307;-45
2021/12/31 07:27:00;;;;;;;2.10;0.90;;;27.00;49.30;;;;;;4969025;28;20285;-47
2021/12/31 07:29:31;;;;;;;1.13;0.90;;;27.00;49.30;;;;;;4968989;28;20661;-42
2021/12/31 07:32:01;;;;;;;1.73;0.85;;;26.90;49.20;;;;;;4969011;28;20285;-45
2021/12/31 07:34:32;;;;;;;1.83;0.75;;;26.90;49.20;;;;;;4971005;28;20236;-43
2021/12/31 07:37:03;;;;;;;2.40;0.98;;;26.90;49.30;;;;;;4969049;28;20198;-48
2021/12/31 07:39:35;;;;;;;0.98;0.80;;;26.90;49.20;;;;;;4968877;28;20317;-47
2021/12/31 07:42:06;;;;;;;1.77;1.00;;;26.80;49.20;;;;;;4968866;28;20198;-44
2021/12/31 07:44:37;;;;;;;1.30;0.95;;;26.90;49.20;;;;;;4968636;28;20557;-49
2021/12/31 07:47:07;;;;;;;2.58;1.10;;;26.90;49.20;;;;;;4968746;28;20285;-50
2021/12/31 07:49:38;;;;;;;1.25;0.85;;;26.90;49.20;;;;;;4969129;28;20923;-50
2021/12/31 07:52:09;;;;;;;2.20;0.90;;;26.80;49.10;;;;;;4968759;28;20632;-47
2021/12/31 07:54:41;;;;;;;1.10;0.90;;;26.80;49.10;;;;;;4967384;28;20301;-40
2021/12/31 07:57:11;;;;;;;1.88;0.98;;;26.80;49.10;;;;;;4969041;28;20194;-51
2021/12/31 07:59:42;;;;;;;1.55;1.05;;;26.80;49.10;;;;;;4968322;28;20254;-39
2021/12/31 08:02:12;;;;;;;1.90;1.20;;;26.80;49.10;;;;;;4954058;28;20308;-40
2021/12/31 08:04:43;;;;;;;1.42;1.10;;;26.80;49.10;;;;;;4982352;28;20286;-41
2021/12/31 08:07:13;;;;;;;1.50;0.80;;;26.80;49.10;;;;;;4968700;28;20286;-48
2021/12/31 08:09:45;;;;;;;1.13;0.98;;;26.70;49.10;;;;;;4968128;28;20302;-44
2021/12/31 08:12:16;;;;;;;2.05;1.30;;;26.70;49.10;;;;;;4968463;28;20293;-44
2021/12/31 08:14:46;;;;;;;3.50;1.20;;;26.70;49.00;;;;;;4968575;28;20278;-46
2021/12/31 08:17:17;;;;;;;22.33;3.33;;;26.70;49.00;;;;;;4967031;28;20297;-43
2021/12/31 08:19:47;;;;;;;28.83;3.80;;;26.70;49.00;;;;;;4977280;28;20312;-40
2021/12/31 08:22:18;;;;;;;8.75;1.67;;;26.60;49.00;;;;;;4989158;22;20340;-50
2021/12/31 08:24:50;;;;;;;9.18;2.47;;;26.60;49.00;;;;;;4991571;28;20281;-43
2021/12/31 08:27:20;;;;;;;6.55;1.70;;;26.60;49.00;;;;;;4996289;28;20232;-49
2021/12/31 08:29:51;;;;;;;16.60;2.15;;;26.50;48.90;;;;;;4999756;28;20271;-42
2021/12/31 08:32:21;;;;;;;9.07;1.70;;;26.50;48.90;;;;;;4990126;28;20288;-40
2021/12/31 08:34:52;;;;;;;9.38;1.92;;;26.50;49.00;;;;;;4989279;28;20236;-47
2021/12/31 08:37:22;;;;;;;6.20;1.55;;;26.50;49.00;;;;;;4989694;28;20288;-47
2021/12/31 08:39:55;;;;;;;7.63;1.52;;;26.50;49.00;;;;;;4989255;28;20309;-40
2021/12/31 08:42:25;;;;;;;10.00;1.80;;;26.50;49.00;;;;;;4989351;28;20205;-48
2021/12/31 08:44:56;;;;;;;4.03;1.52;;;26.50;49.10;;;;;;4989632;28;20288;-47
2021/12/31 08:47:26;;;;;;;6.32;1.42;;;26.40;49.00;;;;;;4989576;28;20237;-50
2021/12/31 08:49:57;;;;;;;7.50;1.63;;;26.40;49.10;;;;;;4988943;28;20309;-49
2021/12/31 08:52:27;;;;;;;8.77;1.38;;;26.40;49.10;;;;;;4989238;28;20292;-48
2021/12/31 08:55:00;;;;;;;5.88;1.20;;;26.30;49.00;;;;;;4989592;28;20291;-50
2021/12/31 08:57:30;;;;;;;5.10;1.50;;;26.40;49.10;;;;;;4988951;28;20344;-43
2021/12/31 09:00:00;;;;;;;7.15;1.67;;;26.30;49.00;;;;;;5005356;28;20312;-43
2021/12/31 09:02:31;;;;;;;5.97;1.42;;;26.30;49.00;;;;;;4991572;28;20288;-45
2021/12/31 09:05:01;;;;;;;5.57;1.23;;;26.30;49.00;;;;;;4989049;28;20251;-51
2021/12/31 09:07:32;;;;;;;4.22;1.58;;;26.20;48.90;;;;;;4989455;28;20271;-48
2021/12/31 09:10:05;;;;;;;3.08;1.23;;;26.20;48.90;;;;;;4984311;28;20305;-39
2021/12/31 09:12:35;;;;;;;3.83;1.30;;;26.20;48.90;;;;;;4988632;28;20256;-40
2021/12/31 09:15:07;;;;;;;3.13;1.10;;;26.10;48.80;;;;;;4988137;28;20233;-41
2021/12/31 09:17:38;;;;;;;7.63;1.40;;;26.10;48.90;;;;;;4989192;28;20293;-45
2021/12/31 09:20:09;;;;;;;4.30;1.40;;;26.10;48.90;;;;;;4986088;28;20304;-48
2021/12/31 09:22:39;;;;;;;4.43;1.17;;;26.10;48.90;;;;;;4989414;28;20292;-44
2021/12/31 09:25:12;;;;;;;2.67;1.27;;;26.10;48.90;;;;;;4989333;28;20292;-44
2021/12/31 09:27:42;;;;;;;2.70;1.13;;;26.00;48.90;;;;;;4989018;28;20276;-43
2021/12/31 09:30:13;;;;;;;7.82;1.70;;;26.00;48.90;;;;;;4989062;28;20300;-40
2021/12/31 09:32:44;;;;;;;2.17;1.20;;;26.00;48.90;;;;;;4989217;28;20237;-44
2021/12/31 09:35:15;;;;;;;2.20;0.98;;;26.00;48.90;;;;;;4988839;28;20276;-46
2021/12/31 09:37:45;;;;;;;4.45;1.25;;;26.00;48.90;;;;;;4990541;28;20201;-41
2021/12/31 09:40:18;;;;;;;6.85;1.42;;;25.90;48.80;;;;;;4992131;28;20304;-43
2021/12/31 09:43:04;;;;;;;3.58;1.20;;;25.90;48.90;;;;;;5000082;28;20554;-40
2021/12/31 09:45:35;;;;;;;3.40;0.98;;;25.90;48.90;;;;;;4992649;28;20209;-47
2021/12/31 09:48:08;;;;;;;2.22;1.02;;;25.90;48.90;;;;;;4992433;28;20216;-43
2021/12/31 09:50:41;;;;;;;5.35;1.42;;;25.80;48.80;;;;;;4992298;28;20335;-40
2021/12/31 09:53:12;;;;;;;2.63;1.40;;;25.80;48.90;;;;;;4992541;28;20209;-39
2021/12/31 09:55:47;;;;;;;1.88;1.10;;;25.80;48.90;;;;;;4992145;28;20240;-46
2021/12/31 09:58:19;;;;;;;1.67;1.10;;;25.70;48.80;;;;;;4992595;28;20236;-42
2021/12/31 10:00:50;;;;;;;2.88;1.17;;;25.70;48.80;;;;;;4992313;28;20313;-41
2021/12/31 10:03:24;;;;;;;3.17;1.08;;;25.70;48.80;;;;;;4991491;28;20695;-43
2021/12/31 10:05:55;;;;;;;2.05;1.35;;;25.70;48.90;;;;;;4991839;28;20518;-46
2021/12/31 10:08:28;;;;;;;1.80;1.13;;;25.70;48.90;;;;;;4992697;28;20284;-43
2021/12/31 10:11:11;;;;;;;1.67;1.10;;;25.60;48.80;;;;;;4980523;28;20273;-45
2021/12/31 10:13:42;;;;;;;2.40;1.17;;;25.50;48.70;;;;;;4975190;28;20197;-46
2021/12/31 10:16:24;;;;;;;3.00;1.25;;;25.50;48.80;;;;;;4992305;28;20280;-54
2021/12/31 10:19:07;;;;;;;2.53;1.08;;;25.50;48.80;;;;;;4991678;28;20284;-46
2021/12/31 10:21:42;;;;;;;1.45;0.98;;;25.50;48.80;;;;;;4992467;28;20284;-49
2021/12/31 10:24:36;;;;;;;2.65;1.20;;;25.50;48.80;;;;;;4991527;28;20291;-40
2021/12/31 10:27:20;;;;;;;2.50;1.00;;;25.40;48.80;;;;;;4989365;28;20300;-46
2021/12/31 10:29:57;;;;;;;2.15;1.00;;;25.40;48.80;;;;;;4991627;28;20666;-43
2021/12/31 10:32:30;;;;;;;1.55;1.02;;;25.40;48.90;;;;;;4991855;28;20315;-41
2021/12/31 10:35:11;;;;;;;2.85;1.15;;;25.40;48.80;;;;;;4991551;28;20252;-43
2021/12/31 10:37:46;;;;;;;1.98;0.85;;;25.30;48.80;;;;;;4991176;28;20284;-39
2021/12/31 10:40:29;;;;;;;1.60;1.00;;;25.30;48.80;;;;;;4991403;28;20304;-47
2021/12/31 10:43:18;;;;;;;2.53;1.15;;;25.30;48.80;;;;;;4975783;28;20198;-53
2021/12/31 10:46:03;;;;;;;1.35;1.10;;;25.30;48.80;;;;;;4991294;28;20345;-45
2021/12/31 10:48:47;;;;;;;1.75;1.20;;;25.20;48.70;;;;;;4990836;28;20653;-41
2021/12/31 10:51:19;;;;;;;1.90;0.90;;;25.20;48.80;;;;;;4983858;28;20648;-50
2021/12/31 10:53:54;;;;;;;2.45;0.90;;;25.20;48.80;;;;;;4984854;28;20197;-49
2021/12/31 10:56:24;;;;;;;2.03;1.00;;;25.10;49.20;;;;;;4993680;28;20193;-51
2021/12/31 10:59:03;;;;;;;2.22;0.90;;;25.10;48.80;;;;;;4990895;28;20248;-42
2021/12/31 11:01:34;;;;;;;2.40;0.80;;;25.10;48.80;;;;;;4990786;28;20264;-42
2021/12/31 11:04:05;;;;;;;1.55;1.05;;;25.00;48.80;;;;;;4990808;28;20248;-42
2021/12/31 11:06:35;;;;;;;1.13;0.80;;;25.00;48.80;;;;;;4991298;28;20284;-50
2021/12/31 11:09:06;;;;;;;1.65;0.98;;;25.00;48.80;;;;;;4991034;28;20261;-51
2021/12/31 11:11:37;;;;;;;2.35;0.90;;;25.00;48.80;;;;;;4990468;28;20596;-48
2021/12/31 11:14:10;;;;;;;2.78;1.08;;;24.90;48.80;;;;;;4991207;28;20668;-46
2021/12/31 11:16:42;;;;;;;1.83;0.93;;;24.90;48.90;;;;;;4990635;28;20296;-43
2021/12/31 11:19:15;;;;;;;1.45;1.10;;;24.90;48.80;;;;;;4990714;28;20312;-49
2021/12/31 11:21:49;;;;;;;2.65;0.90;;;24.90;48.90;;;;;;4989171;28;20676;-39
2021/12/31 11:24:34;;;;;;;1.77;0.90;;;24.90;48.90;;;;;;4990392;28;20641;-39
2021/12/31 11:27:31;;;;;;;2.33;1.00;;;24.80;48.90;;;;;;4990626;28;20197;-47
2021/12/31 11:30:04;;;;;;;3.45;1.10;;;24.80;48.80;;;;;;4990918;28;20657;-45
2021/12/31 11:32:58;;;;;;;2.03;1.20;;;24.80;48.90;;;;;;4992939;28;20256;-46
2021/12/31 11:35:36;;;;;;;1.58;0.90;;;24.70;48.90;;;;;;4987540;28;20240;-48
2021/12/31 11:38:08;;;;;;;2.67;1.00;;;24.70;48.90;;;;;;4990533;28;20647;-44
2021/12/31 11:40:41;;;;;;;1.52;1.02;;;24.70;49.00;;;;;;4990117;28;20295;-44
2021/12/31 11:43:26;;;;;;;2.67;1.00;;;24.70;49.00;;;;;;4990457;28;20209;-44
2021/12/31 11:46:45;;;;;;;1.63;0.98;;;24.60;49.50;;;;;;4990594;28;20303;-39
2021/12/31 11:49:22;;;;;;;2.22;1.00;;;24.60;48.90;;;;;;4978404;28;20229;-52
2021/12/31 11:52:05;;;;;;;1.42;0.98;;;24.50;48.90;;;;;;4989702;28;20313;-41
2021/12/31 11:54:36;;;;;;;1.80;1.00;;;24.50;48.90;;;;;;4990483;28;20201;-50
2021/12/31 11:57:12;;;;;;;2.30;1.00;;;24.50;48.90;;;;;;4990271;28;20293;-54
2021/12/31 11:59:54;;;;;;;1.08;0.70;;;24.50;49.00;;;;;;4989422;28;20308;-56
2021/12/31 12:02:35;;;;;;;1.50;0.80;;;24.40;48.90;;;;;;4990194;28;20241;-55
2021/12/31 12:05:15;;;;;;;2.17;1.00;;;24.40;49.00;;;;;;4989953;28;20822;-46
2021/12/31 12:07:52;;;;;;;0.98;0.88;;;24.40;49.00;;;;;;4990232;28;20610;-44
2021/12/31 12:10:28;;;;;;;1.58;0.88;;;24.40;49.00;;;;;;4985646;28;20214;-48
2021/12/31 12:13:23;;;;;;;1.60;0.90;;;24.30;48.90;;;;;;4976655;28;20304;-47
2021/12/31 12:15:54;;;;;;;2.20;1.08;;;24.30;48.90;;;;;;4990179;28;20233;-43
2021/12/31 12:19:01;;;;;;;2.25;0.90;;;24.30;48.90;;;;;;4990011;28;20212;-42
2021/12/31 12:21:44;;;;;;;1.25;1.00;;;24.30;48.90;;;;;;5003436;22;20752;-42
2021/12/31 12:24:16;;;;;;;2.40;1.13;;;24.30;48.90;;;;;;5009958;28;20232;-48
2021/12/31 12:26:47;;;;;;;1.27;1.02;;;24.20;48.90;;;;;;5009480;28;20287;-40
2021/12/31 12:29:27;;;;;;;1.58;0.90;;;24.20;49.00;;;;;;5009423;28;20311;-50
2021/12/31 12:32:11;;;;;;;3.15;0.93;;;24.20;49.00;;;;;;5010867;28;20224;-55
2021/12/31 12:34:42;;;;;;;2.35;0.80;;;24.20;49.00;;;;;;5009433;28;20688;-50
2021/12/31 12:37:14;;;;;;;1.88;0.93;;;24.10;49.00;;;;;;4992522;28;20284;-44
2021/12/31 12:39:45;;;;;;;1.58;0.60;;;24.10;48.90;;;;;;5010330;28;20252;-58
2021/12/31 12:42:16;;;;;;;1.92;0.80;;;24.10;49.00;;;;;;5010432;28;20213;-56
2021/12/31 12:45:01;;;;;;;1.38;0.88;;;24.10;48.90;;;;;;5010145;28;20284;-50
2021/12/31 12:47:31;;;;;;;1.55;0.90;;;24.00;48.90;;;;;;5010303;28;20199;-49
2021/12/31 12:50:04;;;;;;;1.75;0.98;;;24.00;48.90;;;;;;5010090;28;20658;-42
2021/12/31 12:52:36;;;;;;;0.82;0.73;;;24.00;49.00;;;;;;5009178;28;20216;-42
2021/12/31 12:55:14;;;;;;;3.25;0.70;;;24.00;49.00;;;;;;5006953;28;20311;-53
2021/12/31 12:57:52;;;;;;;1.10;0.85;;;24.00;49.00;;;;;;5007797;28;20283;-51
2021/12/31 13:00:35;;;;;;;0.70;0.65;;;24.00;49.00;;;;;;5008884;28;20287;-43
2021/12/31 13:03:10;;;;;;;2.15;0.80;;;23.90;48.90;;;;;;4999997;28;20313;-51
2021/12/31 13:05:41;;;;;;;0.90;0.70;;;23.90;48.90;;;;;;5007768;28;20287;-48
2021/12/31 13:08:18;;;;;;;0.90;0.70;;;23.90;48.90;;;;;;5009264;28;20291;-44
2021/12/31 13:10:51;;;;;;;0.77;0.60;;;23.90;48.90;;;;;;5010381;28;20223;-37
2021/12/31 13:13:21;;;;;;;1.10;0.70;;;23.80;48.90;;;;;;5013828;28;20224;-38
2021/12/31 13:15:53;;;;;;;0.90;0.75;;;23.90;48.90;;;;;;5012105;28;20288;-37